Latest Weather Observations for Bradshaw

IDD60801

Issued at 3:31 pm CST Wednesday 5 August 2015 (issued every 30 minutes, with the page automatically refreshed every 10 minutes)

About weather observations | Map of weather stations | Latest weather observations for NT | Other Formats
Station Details ID: 014954 Name: BRADSHAW Lat: -14.94 Lon: 130.81 Height: 75.0 m
Data from the previous 72 hours. | See also: Recent months at Bradshaw
Date/Time
CST
Temp
°C
App
Temp
°C
Dew
Point
Rel
Hum
%
Delta-T
°C
Wind Press
QNH
hPa
Press
MSL
hPa
Rain
since 9 am
mm
Dir
 
Spd
km/h
Gust
km/h
Spd
kts
Gust
kts
05/03:30pm 28.0 23.2 -6.4 10 14.5 SE 11 28 6 15 1014.6 - 0.0
05/03:00pm 28.6 23.4 -6.0 10 14.7 SE 13 28 7 15 1015.0 1014.7 0.0
05/02:30pm 27.6 21.6 -6.7 10 14.3 ESE 17 32 9 17 1015.5 - 0.0
05/02:00pm 27.8 21.8 -6.6 10 14.4 ESE 17 24 9 13 1016.1 - 0.0
05/01:30pm 27.2 22.0 -5.8 11 13.9 ESE 13 20 7 11 1016.8 - 0.0
05/01:00pm 26.5 20.9 -6.3 11 13.6 ENE 15 32 8 17 1017.1 - 0.0
05/12:30pm 25.9 20.0 -5.6 12 13.2 ESE 17 28 9 15 1017.7 - 0.0
05/12:00pm 25.5 19.9 -6.0 12 13.0 SE 15 28 8 15 1018.4 1018.1 0.0
05/11:30am 24.0 17.7 -6.1 13 12.3 ESE 19 28 10 15 1018.9 - 0.0
05/11:00am 23.3 17.1 -4.8 15 11.7 ESE 19 30 10 16 1019.5 - 0.0
05/10:30am 22.3 16.1 -4.7 16 11.1 E 19 24 10 13 1020.0 - 0.0
05/10:00am 22.0 15.9 -4.1 17 10.9 ESE 19 28 10 15 1020.3 - 0.0
05/09:30am 21.5 14.8 -3.8 18 10.5 SE 22 30 12 16 1020.4 - 0.0
05/09:00am 20.4 15.5 -3.3 20 9.8 SE 13 24 7 13 1020.3 1020.0 0.0
05/08:30am 19.5 15.4 -3.4 21 9.4 SE 9 17 5 9 1020.2 - 0.0
05/08:00am 17.1 14.5 -1.5 28 7.8 E 2 7 1 4 1019.8 - 0.0
05/07:30am 15.9 12.4 -1.6 30 7.2 ESE 7 11 4 6 1019.4 - 0.0
05/07:00am 15.8 12.8 -1.7 30 7.2 SSE 4 7 2 4 1019.0 - 0.0
05/06:30am 15.5 12.0 -1.5 31 7.0 WNW 7 11 4 6 1018.9 - 0.0
05/06:00am 17.2 14.7 -1.0 29 7.7 N 2 7 1 4 1018.3 1018.0 0.0
05/05:30am 18.3 14.5 -1.0 27 8.3 E 9 13 5 7 1018.0 - 0.0
05/05:00am 18.2 15.4 -0.6 28 8.1 E 4 13 2 7 1017.9 - 0.0
05/04:30am 19.0 15.6 -0.9 26 8.6 SSE 7 9 4 5 1017.7 - 0.0
05/04:00am 19.7 16.3 -0.9 25 8.9 SW 7 11 4 6 1017.5 - 0.0
05/03:30am 20.7 16.2 -0.6 24 9.4 SE 13 24 7 13 1017.4 - 0.0
05/03:00am 21.3 15.6 -0.6 23 9.7 ESE 19 30 10 16 1017.2 1016.9 0.0
05/02:30am 21.7 15.1 -0.3 23 9.8 ESE 24 35 13 19 1017.1 - 0.0
05/02:00am 22.0 15.1 -0.1 23 9.9 ESE 26 39 14 21 1017.2 - 0.0
05/01:30am 22.1 16.3 0.0 23 10.0 SE 20 33 11 18 1017.3 - 0.0
05/01:00am 21.3 17.0 1.0 26 9.3 SE 13 19 7 10 1017.5 - 0.0
05/12:30am 16.8 13.9 1.7 36 6.7 S 6 9 3 5 1017.4 - 0.0
05/12:00am 16.4 14.5 0.5 34 6.9 CALM 0 6 0 3 1017.6 1017.3 0.0
 
Date/Time
CST
Temp
°C
App
Temp
°C
Dew
Point
Rel
Hum
%
Delta-T
°C
Wind Press
QNH
hPa
Press
MSL
hPa
Rain
since 9 am
mm
Dir
 
Spd
km/h
Gust
km/h
Spd
kts
Gust
kts
04/11:30pm 16.9 15.1 1.4 35 6.9 CALM 0 0 0 0 1017.5 - 0.0
04/11:00pm 18.3 16.3 0.0 29 8.0 CALM 0 0 0 0 1017.4 - 0.0
04/10:30pm 19.1 17.3 1.1 30 8.1 CALM 0 6 0 3 1017.4 - 0.0
04/10:00pm 19.2 16.9 0.3 28 8.4 W 2 7 1 4 1017.3 - 0.0
04/09:30pm 21.2 18.4 2.0 28 8.9 SSW 6 7 3 4 1017.1 - 0.0
04/09:00pm 20.5 17.5 0.9 27 8.9 W 6 7 3 4 1016.8 1016.5 0.0
04/08:30pm 22.3 20.6 1.9 26 9.6 CALM 0 6 0 3 1016.4 - 0.0
04/08:00pm 23.5 20.5 0.6 22 10.6 SSE 6 7 3 4 1016.0 - 0.0
04/07:30pm 25.4 22.2 0.8 20 11.6 SE 7 7 4 4 1015.6 - 0.0
04/07:00pm 27.0 23.0 0.7 18 12.5 SE 11 13 6 7 1015.4 - 0.0
04/06:30pm 28.5 23.3 0.3 16 13.4 SE 17 22 9 12 1015.1 - 0.0
04/06:00pm 29.3 23.5 0.0 15 14.0 SE 20 26 11 14 1014.9 1014.6 0.0
04/05:30pm 30.0 23.9 0.6 15 14.2 SE 22 33 12 18 1014.9 - 0.0
04/05:00pm 30.0 24.5 0.6 15 14.2 SE 19 33 10 18 1014.8 - 0.0
04/04:30pm 30.7 25.7 1.1 15 14.5 ESE 17 32 9 17 1014.9 - 0.0
04/04:00pm 30.1 23.3 0.6 15 14.3 SE 26 39 14 21 1015.0 - 0.0
04/03:30pm 29.9 24.0 1.4 16 14.0 SE 22 33 12 18 1015.2 - 0.0
04/03:00pm 29.8 24.3 0.4 15 14.1 SE 19 32 10 17 1015.6 1015.3 0.0
04/02:30pm 30.5 24.9 1.0 15 14.4 SE 20 32 11 17 1016.1 - 0.0
04/02:00pm 29.3 23.5 0.0 15 14.0 SE 20 30 11 16 1016.9 - 0.0
04/01:30pm 29.0 23.3 0.7 16 13.6 ESE 20 30 11 16 1017.3 - 0.0
04/01:00pm 27.9 22.4 0.6 17 13.0 SE 19 30 10 16 1018.1 - 0.0
04/12:30pm 28.5 23.1 1.1 17 13.2 SE 19 28 10 15 1018.7 - 0.0
04/12:00pm 26.9 21.8 0.6 18 12.4 ESE 17 28 9 15 1019.3 1019.0 0.0
04/11:30am 26.3 21.2 0.9 19 12.0 SSE 17 39 9 21 1019.9 - 0.0
04/11:00am 25.2 20.5 0.7 20 11.5 ESE 15 24 8 13 1020.4 - 0.0
04/10:30am 25.0 19.4 1.2 21 11.2 SSE 20 26 11 14 1020.5 - 0.0
04/10:00am 24.6 18.3 1.5 22 10.9 ESE 24 30 13 16 1020.9 - 0.0
04/09:30am 23.5 17.1 1.2 23 10.4 SE 24 32 13 17 1020.8 - 0.0
04/09:00am 22.9 17.3 1.3 24 10.0 SE 20 30 11 16 1020.5 1020.2 0.0
04/08:30am 22.5 17.0 2.1 26 9.6 SE 20 32 11 17 1020.2 - 0.0
04/08:00am 21.9 18.2 2.1 27 9.3 SE 11 26 6 14 1019.9 - 0.0
04/07:30am 21.4 18.1 2.6 29 8.9 SE 9 15 5 8 1019.5 - 0.0
04/07:00am 20.6 17.8 2.9 31 8.3 S 7 17 4 9 1019.2 - 0.0
04/06:30am 20.7 18.0 2.5 30 8.5 SE 6 11 3 6 1018.7 - 0.0
04/06:00am 20.6 18.6 2.4 30 8.5 NE 2 6 1 3 1018.2 1017.9 0.0
04/05:30am 21.6 18.7 2.8 29 8.9 S 7 11 4 6 1017.8 - 0.0
04/05:00am 21.5 18.6 2.7 29 8.9 WSW 7 11 4 6 1017.7 - 0.0
04/04:30am 22.6 20.0 3.2 28 9.3 SE 6 11 3 6 1017.5 - 0.0
04/04:00am 23.0 19.5 3.5 28 9.5 ESE 11 20 6 11 1017.1 - 0.0
04/03:30am 23.5 19.7 4.0 28 9.6 E 13 17 7 9 1017.0 - 0.0
04/03:00am 23.9 19.4 4.3 28 9.7 E 17 26 9 14 1017.1 1016.8 0.0
04/02:30am 24.5 19.5 4.8 28 9.9 ESE 20 30 11 16 1017.0 - 0.0
04/02:00am 25.2 19.1 4.9 27 10.3 ESE 26 39 14 21 1017.0 - 0.0
04/01:30am 25.6 20.3 5.2 27 10.4 ESE 22 32 12 17 1017.1 - 0.0
04/01:00am 26.2 20.3 5.7 27 10.6 ESE 26 33 14 18 1017.0 - 0.0
04/12:30am 26.6 21.5 6.1 27 10.7 ESE 22 33 12 18 1017.2 - 0.0
04/12:00am 26.8 23.7 7.3 29 10.4 ESE 13 22 7 12 1017.0 1016.7 0.0
 
Date/Time
CST
Temp
°C
App
Temp
°C
Dew
Point
Rel
Hum
%
Delta-T
°C
Wind Press
QNH
hPa
Press
MSL
hPa
Rain
since 9 am
mm
Dir
 
Spd
km/h
Gust
km/h
Spd
kts
Gust
kts
03/11:30pm 26.1 23.4 7.2 30 10.0 ENE 11 15 6 8 1016.8 - 0.0
03/11:00pm 26.1 23.5 7.7 31 9.8 E 11 15 6 8 1016.8 - 0.0
03/10:30pm 26.1 23.4 7.2 30 10.0 ENE 11 13 6 7 1016.8 - 0.0
03/10:00pm 25.7 23.7 7.3 31 9.7 NE 7 9 4 5 1016.9 - 0.0
03/09:30pm 25.7 23.7 6.3 29 10.1 NNE 6 7 3 4 1016.7 - 0.0
03/09:00pm 27.9 25.6 5.5 24 11.6 ESE 7 9 4 5 1016.5 1016.2 0.0
03/08:30pm 29.4 26.4 6.1 23 12.3 ESE 11 15 6 8 1016.2 - 0.0
03/08:00pm 30.3 26.6 6.2 22 12.9 ESE 15 19 8 10 1015.8 - 0.0
03/07:30pm 30.7 26.7 6.6 22 13.0 ESE 17 24 9 13 1015.3 - 0.0
03/07:00pm 30.7 27.8 6.6 22 13.0 ESE 11 15 6 8 1014.9 - 0.0
03/06:30pm 31.9 28.2 6.2 20 13.8 ESE 15 19 8 10 1014.6 - 0.0
03/06:00pm 32.9 29.2 6.2 19 14.4 E 15 24 8 13 1014.3 1013.9 0.0
03/05:30pm 33.3 28.7 6.6 19 14.6 E 20 28 11 15 1014.1 - 0.0
03/05:00pm 33.3 28.5 7.3 20 14.3 SE 22 33 12 18 1014.1 - 0.0
03/04:30pm 34.0 30.7 7.9 20 14.6 E 15 26 8 14 1014.0 - 0.0
03/04:00pm 33.6 30.0 8.3 21 14.2 E 17 35 9 19 1014.0 - 0.0
03/03:30pm 33.8 29.6 8.4 21 14.3 ESE 20 30 11 16 1014.3 - 0.0
03/03:00pm 33.4 29.5 8.8 22 13.9 E 19 30 10 16 1014.6 1014.2 0.0
03/02:30pm 32.7 29.2 8.9 23 13.4 ESE 17 32 9 17 1015.0 - 0.0
03/02:00pm 32.6 28.7 8.8 23 13.4 ESE 19 30 10 16 1015.5 - 0.0
03/01:30pm 33.0 29.1 8.5 22 13.8 ENE 19 26 10 14 1015.8 - 0.0
03/01:00pm 32.9 29.3 9.7 24 13.3 E 19 32 10 17 1016.3 - 0.0
03/12:30pm 32.3 28.7 9.8 25 12.9 ENE 19 24 10 13 1016.8 - 0.0
03/12:00pm 31.8 28.2 9.9 26 12.5 ENE 19 26 10 14 1017.2 1016.9 0.0
03/11:30am 31.1 29.3 11.0 29 11.6 NE 11 19 6 10 1017.6 - 0.0
03/11:00am 30.1 28.4 11.1 31 11.0 NE 11 20 6 11 1018.0 - 0.0
03/10:30am 28.4 27.0 9.6 31 10.5 ENE 7 13 4 7 1018.1 - 0.0
03/10:00am 27.8 27.6 9.1 31 10.3 CALM 0 6 0 3 1018.0 - 0.0
03/09:30am 26.2 24.8 8.7 33 9.5 SE 6 9 3 5 1017.9 - 0.0
03/09:00am 25.3 24.6 7.0 31 9.6 CALM 0 0 0 0 1017.4 1017.1 0.0
03/08:30am 23.4 22.3 6.7 34 8.6 WNW 2 7 1 4 1017.1 - 0.0
03/08:00am 21.3 20.5 6.4 38 7.6 CALM 0 0 0 0 1017.1 - 0.0
03/07:30am 19.2 17.3 6.7 44 6.3 WNW 6 6 3 3 1016.8 - 0.0
03/07:00am 20.1 17.9 6.1 40 7.0 NNW 7 11 4 6 1016.7 - 0.0
03/06:30am 22.8 20.3 6.6 35 8.3 NE 9 20 5 11 1016.5 - 0.0
03/06:00am 21.9 18.2 6.2 36 8.0 N 15 20 8 11 1016.0 1015.7 0.0
03/05:30am 21.5 17.3 5.8 36 7.9 N 17 24 9 13 1015.7 - 0.0
03/05:00am 22.4 19.0 5.8 34 8.4 N 13 15 7 8 1015.5 - 0.0
03/04:30am 22.2 19.1 5.6 34 8.3 N 11 11 6 6 1015.5 - 0.0
03/04:00am 22.7 19.6 5.6 33 8.6 N 11 13 6 7 1015.6 - 0.0
03/03:30am 22.7 20.0 5.6 33 8.6 N 9 11 5 6 1015.8 - 0.0
03/03:00am 23.0 19.9 5.4 32 8.8 N 11 13 6 7 1015.8 1015.5 0.0
03/02:30am 23.9 21.1 5.3 30 9.4 N 9 11 5 6 1016.0 - 0.0
03/02:00am 24.2 21.0 5.1 29 9.6 N 11 13 6 7 1016.2 - 0.0
03/01:30am 25.2 22.9 4.9 27 10.3 NE 6 9 3 5 1016.4 - 0.0
03/01:00am 25.8 22.4 5.9 28 10.3 NNE 13 17 7 9 1016.6 - 0.0
03/12:30am 25.8 23.4 5.4 27 10.5 NNE 7 11 4 6 1016.6 - 0.0
03/12:00am 25.3 22.3 6.0 29 10.0 NNE 11 13 6 7 1016.6 1016.3 0.0
 
Date/Time
CST
Temp
°C
App
Temp
°C
Dew
Point
Rel
Hum
%
Delta-T
°C
Wind Press
QNH
hPa
Press
MSL
hPa
Rain
since 9 am
mm
Dir
 
Spd
km/h
Gust
km/h
Spd
kts
Gust
kts
02/11:30pm 24.2 21.4 5.1 29 9.6 ENE 9 11 5 6 1016.6 - 0.0
02/11:00pm 24.3 21.7 6.1 31 9.4 NE 9 11 5 6 1016.6 - 0.0
02/10:30pm 23.7 21.1 6.0 32 9.0 NE 9 11 5 6 1016.5 - 0.0
02/10:00pm 26.0 23.4 6.1 28 10.3 ENE 9 11 5 6 1016.3 - 0.0
02/09:30pm 25.9 23.6 5.5 27 10.5 NE 7 11 4 6 1016.3 - 0.0
02/09:00pm 25.4 24.4 5.6 28 10.1 CALM 0 6 0 3 1016.1 1015.8 0.0
02/08:30pm 27.9 25.2 5.5 24 11.6 ENE 9 9 5 5 1015.7 - 0.0
02/08:00pm 28.2 25.4 5.1 23 11.9 ENE 9 11 5 6 1015.3 - 0.0
02/07:30pm 30.4 27.2 4.9 20 13.3 E 11 17 6 9 1014.9 - 0.0
02/07:00pm 30.6 27.4 5.1 20 13.4 ESE 11 15 6 8 1014.5 - 0.0
02/06:30pm 31.9 28.4 5.4 19 14.1 ESE 13 19 7 10 1014.1 - 0.0
02/06:00pm 33.0 28.6 4.7 17 14.9 ESE 17 24 9 13 1013.7 1013.3 0.0
02/05:30pm 33.3 29.5 5.8 18 14.8 E 15 24 8 13 1013.7 - 0.0
02/05:00pm 33.3 30.0 6.6 19 14.6 ESE 13 20 7 11 1013.7 - 0.0
02/04:30pm 33.6 30.0 6.8 19 14.7 ESE 15 24 8 13 1013.5 - 0.0
02/04:00pm 33.8 28.7 6.2 18 15.0 E 22 28 12 15 1013.7 - 0.0

Other Formats:

Comma delimited format used in spreadsheet applications
http://www.bom.gov.au/fwo/IDD60801/IDD60801.94130.axf

JavaScript Object Notation format (JSON) in row-major order
http://www.bom.gov.au/fwo/IDD60801/IDD60801.94130.json